Thorncreek, Indiana
Current Conditions -  °F | °C
As of 10:54 AM on Wednesday 28 Jan 2015 (Local Time) from KFWA Reporting Station
Scattered Clouds Scattered Clouds  
Wind Chill: 10°   Ceiling: Unl
Heat Index: 20°   Visibility: 10mi
Dew Point: 12°   Wind: 8mph
Humidity: 71%   Direction: 130°SE
Pressure: 30.35"   Gusts: NA
Location:  41.1479°N, 85.4772°W
Report Text: KFWA 281554Z 13007KT 10SM SCT250 M07/M11 A3035 RMK AO2 SLP294 T10671111
Loading
Personal Weather Stations






























Interactive Weather Map New forecast layout! Learn more

10-Day Weather Forecast

Advertisements
Track Severe Weather on mobile